Decoded Metar for PAKN (KING SALMON in AK, USA) (IATA:AKN) | Meteo·Mobile Aviation Weather
aviador You're here:

PAKN Decoded Metar

KING SALMON in AK, USA
Report Time2019-02-17 04:54:00
UTC Time2019-02-17 05:21:55
Flight Rules vfr VFR
Wind090° at 11 kt
W.Decomp.*RWY 12: 7.6 kt HW 7.9 kt LCW
RWY 36: 3.0 kt HW 10.6 kt RCW
W.Rank090° ranks 2
Current wind is below 090° avg. (11.3)
Visibility9999 m
Phenomena:N/A
Clouds:Overcast 039 Hf
Expected CloudBase > 1,200 ft AGL from Temp-Dew spread
Ceiling3,900 ft
Temp02°C (ISA -13)
Dew Point-1°C (81% RH)
AAT-4.1°C
QNH1008 hPa
Density Alt-1,263 ft
Elevation56 ft
Report Wrong Elevation
Raw Report
PAKN 170454Z 09011KT 10SM OVC039 02/M01 A2978=

Extra information for PAKN:More info

Metar Taf Metar & Taf Last 4 Metars F.Rules Stats Wind Profile Meteogram Temp Stats Airport Information Weather charts Add Link Nearby VenuesMetar ALERT Operation Metar Decoded Social comments

AIRNAV info for PAKN